createdAt,value
2022-08-03T00:01:34.870Z,42.33
2022-08-03T00:04:01.906Z,42.08
2022-08-03T00:06:28.480Z,42.69
2022-08-03T00:08:55.055Z,42.98
2022-08-03T00:11:21.651Z,43.06
2022-08-03T00:13:48.463Z,43.34
2022-08-03T00:16:15.373Z,43.33
2022-08-03T00:18:41.844Z,43.30
2022-08-03T00:21:08.447Z,43.40
2022-08-03T00:23:52.510Z,43.37
2022-08-03T00:26:20.781Z,44.42
2022-08-03T00:28:47.540Z,43.18
2022-08-03T00:31:14.047Z,44.23
2022-08-03T00:33:58.056Z,44.35
2022-08-03T00:36:26.969Z,43.75
2022-08-03T00:38:53.562Z,44.24
2022-08-03T00:41:20.066Z,44.64
2022-08-03T00:43:47.491Z,44.90
2022-08-03T00:46:17.713Z,44.13
2022-08-03T00:48:47.353Z,43.71
2022-08-03T00:51:14.070Z,44.39
2022-08-03T00:53:41.184Z,44.35
2022-08-03T00:56:07.815Z,44.05
2022-08-03T00:58:34.467Z,44.42
2022-08-03T01:01:01.085Z,44.11
2022-08-03T01:03:27.748Z,43.92
2022-08-03T01:06:18.333Z,44.00
2022-08-03T01:08:59.903Z,43.63
2022-08-03T01:11:26.322Z,43.95
2022-08-03T01:14:34.685Z,44.20
2022-08-03T01:17:22.071Z,44.43
2022-08-03T01:19:54.516Z,43.85
2022-08-03T01:22:23.758Z,44.38
2022-08-03T01:24:50.192Z,44.23
2022-08-03T01:27:29.327Z,45.00
2022-08-03T01:30:08.268Z,44.59
2022-08-03T01:33:12.449Z,45.09
2022-08-03T01:35:46.861Z,45.17
2022-08-03T01:38:28.854Z,44.71
2022-08-03T01:40:56.685Z,44.99
2022-08-03T01:43:59.031Z,44.98
2022-08-03T01:46:17.075Z,44.64
2022-08-03T01:48:46.257Z,45.07
2022-08-03T01:51:15.552Z,45.19
2022-08-03T01:53:45.449Z,44.87
2022-08-03T01:56:13.978Z,45.28
2022-08-03T01:58:43.681Z,45.48
2022-08-03T02:01:11.931Z,44.94
2022-08-03T02:04:00.077Z,44.87
2022-08-03T02:06:59.814Z,45.42
2022-08-03T02:09:20.839Z,45.28
2022-08-03T02:11:47.963Z,45.66
2022-08-03T02:14:15.887Z,44.97
2022-08-03T02:16:44.626Z,45.17
2022-08-03T02:19:11.797Z,45.10
2022-08-03T02:21:57.408Z,45.44
2022-08-03T02:24:25.296Z,45.67
2022-08-03T02:26:55.499Z,45.74
2022-08-03T02:29:39.476Z,45.96
2022-08-03T02:32:12.461Z,46.01
2022-08-03T02:34:40.750Z,45.92
2022-08-03T02:37:10.258Z,45.95
2022-08-03T02:39:37.684Z,46.28
2022-08-03T02:42:08.561Z,46.06
2022-08-03T02:44:37.152Z,46.33
2022-08-03T02:47:07.390Z,45.89
2022-08-03T02:49:50.502Z,45.96
2022-08-03T02:52:21.039Z,46.12
2022-08-03T02:54:51.337Z,46.11
2022-08-03T02:57:19.958Z,46.28
2022-08-03T02:59:47.410Z,46.64
2022-08-03T03:02:16.929Z,46.28
2022-08-03T03:05:51.792Z,46.25
2022-08-03T03:07:39.131Z,45.65
2022-08-03T03:10:21.606Z,45.88
2022-08-03T03:12:50.356Z,46.22
2022-08-03T03:15:16.922Z,46.57
2022-08-03T03:17:44.122Z,45.93
2022-08-03T03:20:11.744Z,45.57
2022-08-03T03:22:40.104Z,45.61
2022-08-03T03:25:10.362Z,46.24
2022-08-03T03:27:37.122Z,46.00
2022-08-03T03:30:05.611Z,45.83
2022-08-03T03:32:32.528Z,45.88
2022-08-03T03:34:59.629Z,46.19
2022-08-03T03:37:29.336Z,45.79
2022-08-03T03:39:56.081Z,45.63
2022-08-03T03:42:23.411Z,45.63
2022-08-03T03:44:49.972Z,45.69
2022-08-03T03:47:16.784Z,45.87
2022-08-03T03:49:45.001Z,45.67
2022-08-03T03:52:11.686Z,45.71
2022-08-03T03:54:42.650Z,45.70
2022-08-03T03:57:13.789Z,46.94
2022-08-03T03:59:43.946Z,46.25
2022-08-03T04:02:11.868Z,45.83
2022-08-03T04:04:57.143Z,45.88
2022-08-03T04:07:43.422Z,46.55
2022-08-03T04:10:40.914Z,46.62
2022-08-03T04:13:10.695Z,46.37
2022-08-03T04:15:39.912Z,45.87
2022-08-03T04:18:09.821Z,46.50
2022-08-03T04:20:38.774Z,47.15
2022-08-03T04:23:15.417Z,46.48
2022-08-03T04:25:43.895Z,46.72
2022-08-03T04:28:30.450Z,46.53
2022-08-03T04:30:59.275Z,47.05
2022-08-03T04:33:29.209Z,46.92
2022-08-03T04:36:02.734Z,46.97
2022-08-03T04:38:32.833Z,47.61
2022-08-03T04:41:01.053Z,47.03
2022-08-03T04:43:28.685Z,46.49
2022-08-03T04:45:57.064Z,46.08
2022-08-03T04:48:24.394Z,46.99
2022-08-03T04:50:51.704Z,46.30
2022-08-03T04:53:18.217Z,46.07
2022-08-03T04:55:46.549Z,45.77
2022-08-03T04:58:13.065Z,46.35
2022-08-03T05:00:39.617Z,46.20
2022-08-03T05:03:23.770Z,45.73
2022-08-03T05:06:01.792Z,45.65
2022-08-03T05:08:36.854Z,45.32
2022-08-03T05:11:13.100Z,45.34
2022-08-03T05:13:39.608Z,45.73
2022-08-03T05:16:06.056Z,46.01
2022-08-03T05:18:32.491Z,45.44
2022-08-03T05:20:59.316Z,45.15
2022-08-03T05:23:25.820Z,46.04
2022-08-03T05:25:52.314Z,46.03
2022-08-03T05:28:18.978Z,45.33
2022-08-03T05:30:45.481Z,44.99
2022-08-03T05:33:11.957Z,45.28
2022-08-03T05:35:56.794Z,46.01
2022-08-03T05:38:28.644Z,45.01
2022-08-03T05:41:21.756Z,46.07
2022-08-03T05:43:44.173Z,44.91
2022-08-03T05:46:12.049Z,44.52
2022-08-03T05:48:39.774Z,44.76
2022-08-03T05:51:07.700Z,44.89
2022-08-03T05:53:34.968Z,44.15
2022-08-03T05:56:03.655Z,45.01
2022-08-03T05:58:42.274Z,45.29
2022-08-03T06:01:08.814Z,44.77
2022-08-03T06:03:35.347Z,44.52
2022-08-03T06:06:01.854Z,43.39
2022-08-03T06:08:28.409Z,42.88
2022-08-03T06:10:54.977Z,42.98
2022-08-03T06:13:22.022Z,41.13
2022-08-03T06:15:48.661Z,40.48
2022-08-03T06:18:15.119Z,39.08
2022-08-03T06:20:41.670Z,39.62
2022-08-03T06:23:08.156Z,37.94
2022-08-03T06:25:43.086Z,38.43
2022-08-03T06:28:18.952Z,39.15
2022-08-03T06:30:46.637Z,37.96
2022-08-03T06:33:16.692Z,38.80
2022-08-03T06:35:43.147Z,40.08
2022-08-03T06:38:12.964Z,38.41
2022-08-03T06:40:42.125Z,37.39
2022-08-03T06:43:12.674Z,37.35
2022-08-03T06:45:39.708Z,36.33
2022-08-03T06:48:08.206Z,37.19
2022-08-03T06:50:37.730Z,36.79
2022-08-03T06:53:05.350Z,36.80
2022-08-03T06:55:32.368Z,39.30
2022-08-03T06:57:59.756Z,37.79
2022-08-03T07:00:30.872Z,36.01
2022-08-03T07:02:58.411Z,34.74
2022-08-03T07:05:25.403Z,36.38
2022-08-03T07:07:55.735Z,34.46
2022-08-03T07:10:22.277Z,35.32
2022-08-03T07:12:55.596Z,36.45
2022-08-03T07:15:53.938Z,33.94
2022-08-03T07:18:10.872Z,35.97
2022-08-03T07:20:37.365Z,34.92
2022-08-03T07:23:03.815Z,32.65
2022-08-03T07:25:30.244Z,31.44
2022-08-03T07:27:56.808Z,31.66
2022-08-03T07:30:24.766Z,32.57
2022-08-03T07:32:51.279Z,31.41
2022-08-03T07:35:24.980Z,31.35
2022-08-03T07:37:54.861Z,31.56
2022-08-03T07:40:22.402Z,31.53
2022-08-03T07:42:52.102Z,32.03
2022-08-03T07:45:23.209Z,32.32
2022-08-03T07:47:53.723Z,31.62
2022-08-03T07:50:20.733Z,32.20
2022-08-03T07:52:51.485Z,32.93
2022-08-03T07:55:20.792Z,34.17
2022-08-03T07:57:48.074Z,31.52
2022-08-03T08:00:17.439Z,31.24
2022-08-03T08:02:44.523Z,30.62
2022-08-03T08:05:11.476Z,30.33
2022-08-03T08:07:38.829Z,29.43
2022-08-03T08:10:06.925Z,31.63
2022-08-03T08:12:33.626Z,30.26
2022-08-03T08:15:00.158Z,28.83
2022-08-03T08:17:26.861Z,31.28
2022-08-03T08:19:53.723Z,30.29
2022-08-03T08:22:30.146Z,30.97
2022-08-03T08:24:58.386Z,31.13
2022-08-03T08:27:24.937Z,30.93
2022-08-03T08:29:55.312Z,30.02
2022-08-03T08:32:24.046Z,29.37
2022-08-03T08:34:50.900Z,28.84
2022-08-03T08:37:17.455Z,31.04
2022-08-03T08:39:43.912Z,29.66
2022-08-03T08:42:10.548Z,30.58
2022-08-03T08:44:37.181Z,30.63
2022-08-03T08:47:04.441Z,29.73
2022-08-03T08:49:32.951Z,30.05
2022-08-03T08:52:01.617Z,31.08
2022-08-03T08:54:29.728Z,30.09
2022-08-03T08:57:01.844Z,32.03
2022-08-03T08:59:47.807Z,31.91
2022-08-03T09:02:14.790Z,31.93
2022-08-03T09:04:41.458Z,30.43
2022-08-03T09:07:19.709Z,32.46
2022-08-03T09:10:10.531Z,30.40
2022-08-03T09:12:42.174Z,30.38
2022-08-03T09:15:33.052Z,29.47
2022-08-03T09:18:04.095Z,29.56
2022-08-03T09:20:33.134Z,29.22
2022-08-03T09:23:18.998Z,28.90
2022-08-03T09:25:59.919Z,29.97
2022-08-03T09:29:01.649Z,29.37
2022-08-03T09:31:22.465Z,31.14
2022-08-03T09:33:49.425Z,29.35
2022-08-03T09:36:35.652Z,29.34
2022-08-03T09:39:06.336Z,28.70
2022-08-03T09:41:33.518Z,28.23
2022-08-03T09:44:00.051Z,28.44
2022-08-03T09:46:28.432Z,28.55
2022-08-03T09:49:11.908Z,28.59
2022-08-03T09:52:33.932Z,28.97
2022-08-03T09:54:30.647Z,29.67
2022-08-03T09:56:58.154Z,30.31
2022-08-03T09:59:32.800Z,30.09
2022-08-03T10:02:00.485Z,28.75
2022-08-03T10:04:27.696Z,28.88
2022-08-03T10:07:08.368Z,28.84
2022-08-03T10:09:38.070Z,30.22
2022-08-03T10:12:12.373Z,29.07
2022-08-03T10:14:41.885Z,29.19
2022-08-03T10:17:09.510Z,28.68
2022-08-03T10:19:36.450Z,30.72
2022-08-03T10:22:10.564Z,28.87
2022-08-03T10:24:39.254Z,28.18
2022-08-03T10:27:11.333Z,28.97
2022-08-03T10:29:39.654Z,28.91
2022-08-03T10:32:24.663Z,28.58
2022-08-03T10:34:59.884Z,28.09
2022-08-03T10:37:32.245Z,28.91
2022-08-03T10:40:00.578Z,28.57
2022-08-03T10:42:31.272Z,28.27
2022-08-03T10:45:06.860Z,27.58
2022-08-03T10:47:34.975Z,28.01
2022-08-03T10:50:02.191Z,27.64
2022-08-03T10:52:31.899Z,28.48
2022-08-03T10:55:18.975Z,27.73
2022-08-03T10:57:56.254Z,26.98
2022-08-03T11:00:27.230Z,28.19
2022-08-03T11:03:06.700Z,27.88
2022-08-03T11:05:36.512Z,27.35
2022-08-03T11:08:21.748Z,27.66
2022-08-03T11:10:49.732Z,27.13
2022-08-03T11:13:21.960Z,27.06
2022-08-03T11:15:50.873Z,26.99
2022-08-03T11:18:17.682Z,26.64
2022-08-03T11:20:47.169Z,26.57
2022-08-03T11:23:15.077Z,27.30
2022-08-03T11:26:18.103Z,27.13
2022-08-03T11:28:48.252Z,27.21
2022-08-03T11:31:48.777Z,26.66
2022-08-03T11:34:13.398Z,26.34
2022-08-03T11:37:17.873Z,27.74
2022-08-03T11:39:46.621Z,26.32
2022-08-03T11:42:22.131Z,26.88
2022-08-03T11:44:56.840Z,25.77
2022-08-03T11:47:26.928Z,29.14
2022-08-03T11:49:59.146Z,26.99
2022-08-03T11:52:27.322Z,26.75
2022-08-03T11:54:56.934Z,25.97
2022-08-03T11:59:17.464Z,26.02
2022-08-03T12:00:23.482Z,26.17
2022-08-03T12:03:00.761Z,26.56
2022-08-03T12:05:54.700Z,26.37
2022-08-03T12:08:27.119Z,26.69
2022-08-03T12:10:55.289Z,25.51
2022-08-03T12:14:45.594Z,25.68
2022-08-03T12:16:10.066Z,26.28
2022-08-03T12:18:37.104Z,26.28
2022-08-03T12:21:09.360Z,26.57
2022-08-03T12:23:37.939Z,26.98
2022-08-03T12:26:07.118Z,26.52
2022-08-03T12:28:37.791Z,26.46
2022-08-03T12:31:09.444Z,27.24
2022-08-03T12:33:56.039Z,26.17
2022-08-03T12:36:22.699Z,25.90
2022-08-03T12:39:04.300Z,26.29
2022-08-03T12:41:34.138Z,26.32
2022-08-03T12:44:05.390Z,25.54
2022-08-03T12:46:47.409Z,25.90
2022-08-03T12:49:17.072Z,25.05
2022-08-03T12:51:43.580Z,26.59
2022-08-03T12:54:24.331Z,26.51
2022-08-03T12:57:06.533Z,26.31
2022-08-03T12:59:49.866Z,25.85
2022-08-03T13:02:25.550Z,26.57
2022-08-03T13:04:54.491Z,26.71
2022-08-03T13:07:22.323Z,25.88
2022-08-03T13:09:52.928Z,25.44
2022-08-03T13:12:21.517Z,25.68
2022-08-03T13:14:50.362Z,26.51
2022-08-03T13:17:17.140Z,25.93
2022-08-03T13:19:44.819Z,25.80
2022-08-03T13:22:23.113Z,25.91
2022-08-03T13:24:51.994Z,26.73
2022-08-03T13:28:01.271Z,26.59
2022-08-03T13:30:07.127Z,25.82
2022-08-03T13:32:34.153Z,26.43
2022-08-03T13:35:02.510Z,26.29
2022-08-03T13:37:29.778Z,24.83
2022-08-03T13:39:58.646Z,24.74
2022-08-03T13:42:27.435Z,25.22
2022-08-03T13:44:53.924Z,25.27
2022-08-03T13:47:20.922Z,26.75
2022-08-03T13:49:59.554Z,25.59
2022-08-03T13:52:27.851Z,25.40
2022-08-03T13:54:54.435Z,25.12
2022-08-03T13:58:11.392Z,25.75
2022-08-03T14:00:08.547Z,25.54
2022-08-03T14:02:35.153Z,25.79
2022-08-03T14:05:01.639Z,24.78
2022-08-03T14:07:28.161Z,24.06
2022-08-03T14:09:54.647Z,24.92
2022-08-03T14:12:21.102Z,24.86
2022-08-03T14:14:47.566Z,25.63
2022-08-03T14:17:14.078Z,25.59
2022-08-03T14:19:53.096Z,24.67
2022-08-03T14:22:21.066Z,24.14
2022-08-03T14:24:47.788Z,25.15
2022-08-03T14:27:16.401Z,24.94
2022-08-03T14:29:43.211Z,24.55
2022-08-03T14:32:13.184Z,24.69
2022-08-03T14:34:40.762Z,25.79
2022-08-03T14:37:07.276Z,23.73
2022-08-03T14:42:20.452Z,25.65
2022-08-03T14:44:47.709Z,25.91
2022-08-03T14:47:14.661Z,25.78
2022-08-03T14:50:36.395Z,26.73
2022-08-03T14:52:28.107Z,26.28
2022-08-03T14:54:54.612Z,26.05
2022-08-03T14:57:21.423Z,26.50
2022-08-03T14:59:54.094Z,26.17
2022-08-03T15:02:24.919Z,26.15
2022-08-03T15:04:52.066Z,27.21
2022-08-03T15:07:19.012Z,26.98
2022-08-03T15:09:45.904Z,25.50
2022-08-03T15:12:12.519Z,25.64
2022-08-03T15:14:38.997Z,24.96
2022-08-03T15:17:06.519Z,25.17
2022-08-03T15:20:03.516Z,25.23
2022-08-03T15:22:20.676Z,25.10
2022-08-03T15:24:51.273Z,25.36
2022-08-03T15:27:17.912Z,25.61
2022-08-03T15:30:06.176Z,25.18
2022-08-03T15:32:31.025Z,25.51
2022-08-03T15:34:57.552Z,26.45
2022-08-03T15:37:25.654Z,25.36
2022-08-03T15:40:00.150Z,25.48
2022-08-03T15:42:29.491Z,26.41
2022-08-03T15:44:56.136Z,25.69
2022-08-03T15:47:22.887Z,26.32
2022-08-03T15:49:49.474Z,27.02
2022-08-03T15:52:16.115Z,26.03
2022-08-03T15:54:42.707Z,26.09
2022-08-03T15:57:09.174Z,24.37
2022-08-03T15:59:35.675Z,24.65
2022-08-03T16:02:02.404Z,24.43
2022-08-03T16:04:28.925Z,24.58
2022-08-03T16:06:55.432Z,24.81
2022-08-03T16:09:24.174Z,26.19
2022-08-03T16:12:15.444Z,26.19
2022-08-03T16:14:51.795Z,26.09
2022-08-03T16:17:19.526Z,26.33
2022-08-03T16:19:46.247Z,26.54
2022-08-03T16:22:14.406Z,27.04
2022-08-03T16:24:41.273Z,26.23
2022-08-03T16:27:17.422Z,26.96
2022-08-03T16:29:54.543Z,26.89
2022-08-03T16:32:21.051Z,26.90
2022-08-03T16:34:48.199Z,27.11
2022-08-03T16:37:37.799Z,28.18
2022-08-03T16:40:02.306Z,31.41
2022-08-03T16:42:28.851Z,30.42
2022-08-03T16:44:55.359Z,30.32
2022-08-03T16:47:22.798Z,31.29
2022-08-03T16:49:54.392Z,29.72
2022-08-03T16:52:23.305Z,31.31
2022-08-03T16:54:52.718Z,31.28
2022-08-03T16:57:56.242Z,31.23
2022-08-03T17:00:08.938Z,31.11
2022-08-03T17:02:36.328Z,31.23
2022-08-03T17:05:03.350Z,31.09
2022-08-03T17:07:30.502Z,31.53
2022-08-03T17:09:57.633Z,30.58
2022-08-03T17:12:26.901Z,31.30
2022-08-03T17:14:54.085Z,31.22
2022-08-03T17:17:29.879Z,31.46
2022-08-03T17:20:11.342Z,30.39
2022-08-03T17:22:45.340Z,31.59
2022-08-03T17:25:22.132Z,31.65
2022-08-03T17:28:50.674Z,31.03
2022-08-03T17:31:22.657Z,31.25
2022-08-03T17:33:54.869Z,29.36
2022-08-03T17:36:27.303Z,30.30
2022-08-03T17:39:06.571Z,30.60
2022-08-03T17:41:37.891Z,30.53
2022-08-03T17:44:35.311Z,31.11
2022-08-03T17:47:02.390Z,31.85
2022-08-03T17:49:28.979Z,31.57
2022-08-03T17:52:06.106Z,32.07
2022-08-03T17:58:02.617Z,32.06
2022-08-03T18:00:59.634Z,32.05
2022-08-03T18:03:58.009Z,32.29
2022-08-03T18:06:30.937Z,32.69
2022-08-03T18:09:04.807Z,33.14
2022-08-03T18:14:57.860Z,33.32
2022-08-03T18:17:55.719Z,33.28
2022-08-03T18:20:34.156Z,33.83
2022-08-03T18:23:07.323Z,33.89
2022-08-03T18:25:48.608Z,34.05
2022-08-03T18:28:18.497Z,34.62
2022-08-03T18:36:30.902Z,35.10
2022-08-03T18:39:02.366Z,35.43
2022-08-03T18:41:32.067Z,35.32
2022-08-03T18:44:08.203Z,35.31
2022-08-03T18:47:26.325Z,35.35
2022-08-03T18:50:03.305Z,35.39
2022-08-03T18:52:45.934Z,34.68
2022-08-03T18:58:51.407Z,35.21
2022-08-03T19:01:59.859Z,35.65
2022-08-03T19:04:32.999Z,35.79
2022-08-03T19:07:11.217Z,36.07
2022-08-03T19:09:52.199Z,36.75
2022-08-03T19:12:37.411Z,37.01
2022-08-03T19:15:12.415Z,36.67
2022-08-03T19:17:53.702Z,37.33
2022-08-03T19:20:30.705Z,37.04
2022-08-03T19:22:58.622Z,37.01
2022-08-03T19:25:33.402Z,37.78
2022-08-03T19:28:13.143Z,37.46
2022-08-03T19:30:40.440Z,37.31
2022-08-03T19:33:09.865Z,38.19
2022-08-03T19:35:51.132Z,38.01
2022-08-03T19:38:27.393Z,38.28
2022-08-03T19:40:58.447Z,38.97
2022-08-03T19:43:33.095Z,38.71
2022-08-03T19:46:15.228Z,38.53
2022-08-03T19:48:59.394Z,38.76
2022-08-03T19:51:59.034Z,39.20
2022-08-03T19:54:29.936Z,39.05
2022-08-03T19:57:00.166Z,39.75
2022-08-03T19:59:30.317Z,39.60
2022-08-03T20:01:57.461Z,39.81
2022-08-03T20:04:24.332Z,40.38
2022-08-03T20:06:52.190Z,39.98
2022-08-03T20:09:20.336Z,40.60
2022-08-03T20:11:47.783Z,42.51
2022-08-03T20:14:20.782Z,42.76
2022-08-03T20:16:53.744Z,41.33
2022-08-03T20:19:20.357Z,40.93
2022-08-03T20:21:48.762Z,40.75
2022-08-03T20:24:48.107Z,41.06
2022-08-03T20:27:19.767Z,41.17
2022-08-03T20:30:07.887Z,40.61
2022-08-03T20:32:35.272Z,39.80
2022-08-03T20:35:01.777Z,39.90
2022-08-03T20:37:30.447Z,40.38
2022-08-03T20:39:57.700Z,40.43
2022-08-03T20:42:24.676Z,40.22
2022-08-03T20:47:50.377Z,42.48
2022-08-03T20:50:18.272Z,41.61
2022-08-03T20:52:49.737Z,41.74
2022-08-03T20:58:07.732Z,42.55
2022-08-03T21:00:34.643Z,41.92
2022-08-03T21:03:01.141Z,43.97
2022-08-03T21:05:47.734Z,43.59
2022-08-03T21:08:15.907Z,43.80
2022-08-03T21:10:42.913Z,43.85
2022-08-03T21:13:00.961Z,35.44
2022-08-03T21:13:04.328Z,34.64
2022-08-03T21:13:04.463Z,34.81
2022-08-03T21:13:04.626Z,33.19
2022-08-03T21:13:05.029Z,31.50
2022-08-03T21:13:07.320Z,40.71
2022-08-03T21:13:12.649Z,43.36
2022-08-03T21:13:23.714Z,43.81
2022-08-03T21:16:03.209Z,43.35
2022-08-03T21:18:48.888Z,43.96
2022-08-03T21:21:17.813Z,43.64
2022-08-03T21:23:49.175Z,43.70
2022-08-03T21:26:18.496Z,43.61
2022-08-03T21:28:46.818Z,44.15
2022-08-03T21:31:14.071Z,43.61
2022-08-03T21:33:40.922Z,43.21
2022-08-03T21:36:11.012Z,43.48
2022-08-03T21:38:37.635Z,43.69
2022-08-03T21:41:04.146Z,44.21
2022-08-03T21:43:30.638Z,44.18
2022-08-03T21:46:02.928Z,44.27
2022-08-03T21:48:39.677Z,44.58
2022-08-03T21:51:10.079Z,44.59
2022-08-03T21:54:02.676Z,44.67
2022-08-03T21:56:27.869Z,44.34
2022-08-03T21:58:56.814Z,44.24
2022-08-03T22:01:25.703Z,44.76
2022-08-03T22:03:54.887Z,44.71
2022-08-03T22:06:23.028Z,44.35
2022-08-03T22:08:53.589Z,45.03
2022-08-03T22:11:20.562Z,45.51
2022-08-03T22:13:47.618Z,45.16
2022-08-03T22:16:15.361Z,45.20
2022-08-03T22:18:44.040Z,45.13
2022-08-03T22:21:13.325Z,47.07
2022-08-03T22:23:51.493Z,47.93
2022-08-03T22:26:34.610Z,47.48
2022-08-03T22:29:01.729Z,47.33
2022-08-03T22:31:30.745Z,46.28
2022-08-03T22:34:14.901Z,46.63
2022-08-03T22:36:41.827Z,47.07
2022-08-03T22:39:08.509Z,46.79
2022-08-03T22:41:35.204Z,46.72
2022-08-03T22:44:04.608Z,47.48
2022-08-03T22:46:33.849Z,47.03
2022-08-03T22:49:01.424Z,46.62
2022-08-03T22:51:28.132Z,47.13
2022-08-03T22:53:54.939Z,47.65
2022-08-03T22:56:22.025Z,47.15
2022-08-03T22:58:48.511Z,48.14
2022-08-03T23:01:19.741Z,50.76
2022-08-03T23:03:59.764Z,49.64
2022-08-03T23:06:34.491Z,49.53
2022-08-03T23:09:03.933Z,48.99
2022-08-03T23:11:30.958Z,49.24
2022-08-03T23:13:59.878Z,48.82
2022-08-03T23:16:29.114Z,48.51
2022-08-03T23:18:58.776Z,48.36
2022-08-03T23:21:53.509Z,48.40
2022-08-03T23:24:25.986Z,48.68
2022-08-03T23:26:57.149Z,48.91
2022-08-03T23:29:23.812Z,48.69
2022-08-03T23:31:53.561Z,49.01
2022-08-03T23:34:40.312Z,48.70
2022-08-03T23:37:06.811Z,49.19
2022-08-03T23:39:35.218Z,49.21
2022-08-03T23:42:02.965Z,49.55
2022-08-03T23:44:30.533Z,49.32
2022-08-03T23:46:57.264Z,49.41
2022-08-03T23:49:23.762Z,50.00
2022-08-03T23:51:59.041Z,49.81
2022-08-03T23:55:07.973Z,50.88
2022-08-03T23:57:43.703Z,50.56
